Airport Name : Cameri

Other Name : Cameri

ICAO : LIMN

IATA :

FAA :

Latitude : 45.529592

Longitude : 8.669225

Country : Italy

Local Date and Time : 5/25/2018 12:57:00 PM

 

TAF (Terminal Aerodrome Forecast)

 

METAR (METeorological Aerodrome Report)

LIMN 250955Z VRB02KT CAVOK 25/15 Q1016 RMK FEW FEW200 VIS MIN 9999 BLU

LIMN 250855Z 04003KT 350V100 CAVOK 23/16 Q1016 RMK FEW FEW200 VIS MIN 9999 BLU

LIMN 250755Z 36003KT 290V070 CAVOK 22/14 Q1016 RMK FEW FEW200 VIS MIN 9999 BLU